createdAt,value
2022-12-19T00:00:44.677Z,5.70
2022-12-19T00:03:12.260Z,5.23
2022-12-19T00:05:40.087Z,5.57
2022-12-19T00:08:17.452Z,4.67
2022-12-19T00:10:55.077Z,5.93
2022-12-19T00:13:22.505Z,5.00
2022-12-19T00:15:49.999Z,6.50
2022-12-19T00:18:17.501Z,6.73
2022-12-19T00:20:44.966Z,7.20
2022-12-19T00:23:12.467Z,7.13
2022-12-19T00:25:39.900Z,8.27
2022-12-19T00:28:08.920Z,9.33
2022-12-19T00:30:36.361Z,7.87
2022-12-19T00:33:03.855Z,9.13
2022-12-19T00:35:31.344Z,6.80
2022-12-19T00:37:59.133Z,10.10
2022-12-19T00:40:29.400Z,10.50
2022-12-19T00:42:56.845Z,6.30
2022-12-19T00:45:27.799Z,7.43
2022-12-19T00:47:57.475Z,11.00
2022-12-19T00:50:24.907Z,9.27
2022-12-19T00:52:53.383Z,7.80
2022-12-19T00:55:20.853Z,9.20
2022-12-19T00:57:48.319Z,11.00
2022-12-19T01:00:17.988Z,8.57
2022-12-19T01:02:47.462Z,7.80
2022-12-19T01:05:15.427Z,9.67
2022-12-19T01:07:43.010Z,9.27
2022-12-19T01:10:10.861Z,9.00
2022-12-19T01:12:46.432Z,8.30
2022-12-19T01:15:14.319Z,9.50
2022-12-19T01:17:44.049Z,9.67
2022-12-19T01:20:13.953Z,9.07
2022-12-19T01:22:41.604Z,10.27
2022-12-19T01:25:09.148Z,8.70
2022-12-19T01:27:41.681Z,7.13
2022-12-19T01:30:09.812Z,8.40
2022-12-19T01:32:39.010Z,8.63
2022-12-19T01:35:07.083Z,8.07
2022-12-19T01:37:45.438Z,5.43
2022-12-19T01:40:13.653Z,6.23
2022-12-19T01:42:41.120Z,6.23
2022-12-19T01:45:34.566Z,7.70
2022-12-19T01:48:05.478Z,7.73
2022-12-19T01:50:35.548Z,7.50
2022-12-19T01:53:05.001Z,10.40
2022-12-19T01:55:32.466Z,9.03
2022-12-19T01:58:00.318Z,10.10
2022-12-19T02:00:27.807Z,13.47
2022-12-19T02:02:58.282Z,11.33
2022-12-19T02:05:25.866Z,10.40
2022-12-19T02:07:54.407Z,10.60
2022-12-19T02:10:23.267Z,11.27
2022-12-19T02:12:50.870Z,12.00
2022-12-19T02:15:20.299Z,13.60
2022-12-19T02:17:54.713Z,10.07
2022-12-19T02:20:39.954Z,14.07
2022-12-19T02:23:15.226Z,10.63
2022-12-19T02:25:56.814Z,13.23
2022-12-19T02:28:39.865Z,15.50
2022-12-19T02:31:17.456Z,16.07
2022-12-19T02:33:50.275Z,15.27
2022-12-19T02:36:23.146Z,14.00
2022-12-19T02:38:54.702Z,17.07
2022-12-19T02:41:26.700Z,14.50
2022-12-19T02:43:58.876Z,15.67
2022-12-19T02:46:30.252Z,14.47
2022-12-19T02:48:58.061Z,13.00
2022-12-19T02:51:25.648Z,13.17
2022-12-19T02:53:53.192Z,15.37
2022-12-19T02:56:30.719Z,14.30
2022-12-19T02:59:04.529Z,11.90
2022-12-19T03:01:41.119Z,14.97
2022-12-19T03:04:15.550Z,13.83
2022-12-19T03:06:47.932Z,14.67
2022-12-19T03:09:19.334Z,11.47
2022-12-19T03:11:47.661Z,12.70
2022-12-19T03:14:18.415Z,12.03
2022-12-19T03:16:47.273Z,11.43
2022-12-19T03:19:15.611Z,7.83
2022-12-19T03:21:44.818Z,8.37
2022-12-19T03:24:12.911Z,7.60
2022-12-19T03:26:43.345Z,9.17
2022-12-19T03:29:15.462Z,8.80
2022-12-19T03:31:43.904Z,8.33
2022-12-19T03:34:14.774Z,8.80
2022-12-19T03:36:43.069Z,10.80
2022-12-19T03:39:11.797Z,7.03
2022-12-19T03:41:57.946Z,9.50
2022-12-19T03:44:26.944Z,8.60
2022-12-19T03:46:56.092Z,8.00
2022-12-19T03:49:25.155Z,9.67
2022-12-19T03:51:59.380Z,8.50
2022-12-19T03:54:28.378Z,7.70
2022-12-19T03:56:59.108Z,8.80
2022-12-19T03:59:31.605Z,10.27
2022-12-19T04:01:59.450Z,7.10
2022-12-19T04:04:29.707Z,7.47
2022-12-19T04:06:58.151Z,7.50
2022-12-19T04:09:26.236Z,9.37
2022-12-19T04:11:55.102Z,8.90
2022-12-19T04:14:25.015Z,8.83
2022-12-19T04:16:56.503Z,10.97
2022-12-19T04:19:26.036Z,8.37
2022-12-19T04:21:58.315Z,10.17
2022-12-19T04:24:28.727Z,10.40
2022-12-19T04:26:58.367Z,7.63
2022-12-19T04:29:27.277Z,10.50
2022-12-19T04:31:54.892Z,10.93
2022-12-19T04:34:22.429Z,11.77
2022-12-19T04:36:51.160Z,11.53
2022-12-19T04:39:19.974Z,11.53
2022-12-19T04:41:47.390Z,11.37
2022-12-19T04:44:14.863Z,11.60
2022-12-19T04:46:42.289Z,10.77
2022-12-19T04:49:09.762Z,8.47
2022-12-19T04:51:37.400Z,10.80
2022-12-19T04:54:05.021Z,6.73
2022-12-19T04:56:33.862Z,9.93
2022-12-19T04:59:01.611Z,9.60
2022-12-19T05:01:29.246Z,9.30
2022-12-19T05:04:02.778Z,10.97
2022-12-19T05:06:31.794Z,24.10
2022-12-19T05:08:59.218Z,14.10
2022-12-19T05:11:26.679Z,10.20
2022-12-19T05:13:55.484Z,31.50
2022-12-19T05:16:23.009Z,19.67
2022-12-19T05:18:50.475Z,38.00
2022-12-19T05:21:17.925Z,35.97
2022-12-19T05:23:45.438Z,19.50
2022-12-19T05:26:13.045Z,33.53
2022-12-19T05:28:40.955Z,25.20
2022-12-19T05:31:12.413Z,31.73
2022-12-19T05:33:40.771Z,30.23
2022-12-19T05:36:09.335Z,37.00
2022-12-19T05:38:37.192Z,46.93
2022-12-19T05:41:07.451Z,44.23
2022-12-19T05:43:34.877Z,70.63
2022-12-19T05:46:02.331Z,45.80
2022-12-19T05:48:31.345Z,14.70
2022-12-19T05:50:58.811Z,12.90
2022-12-19T05:53:27.469Z,11.97
2022-12-19T05:56:03.503Z,10.00
2022-12-19T05:58:30.935Z,11.97
2022-12-19T06:01:02.473Z,12.13
2022-12-19T06:03:31.335Z,13.90
2022-12-19T06:05:58.829Z,10.17
2022-12-19T06:08:26.261Z,11.03
2022-12-19T06:10:53.681Z,12.77
2022-12-19T06:13:25.025Z,11.50
2022-12-19T06:15:57.606Z,9.57
2022-12-19T06:18:25.158Z,12.03
2022-12-19T06:20:57.919Z,12.87
2022-12-19T06:23:25.438Z,11.10
2022-12-19T06:25:53.139Z,11.33
2022-12-19T06:28:20.628Z,11.53
2022-12-19T06:30:48.075Z,12.30
2022-12-19T06:33:15.617Z,10.30
2022-12-19T06:35:43.193Z,12.53
2022-12-19T06:38:11.978Z,10.87
2022-12-19T06:40:59.448Z,9.90
2022-12-19T06:43:27.165Z,11.27
2022-12-19T06:45:54.933Z,13.20
2022-12-19T06:48:22.752Z,12.00
2022-12-19T06:50:50.214Z,11.63
2022-12-19T06:53:18.980Z,12.37
2022-12-19T06:55:46.429Z,11.83
2022-12-19T06:58:13.877Z,13.83
2022-12-19T07:00:41.367Z,12.20
2022-12-19T07:03:11.447Z,9.60
2022-12-19T07:05:39.413Z,10.87
2022-12-19T07:08:07.211Z,10.20
2022-12-19T07:10:36.048Z,11.33
2022-12-19T07:13:04.377Z,12.93
2022-12-19T07:15:32.942Z,10.23
2022-12-19T07:18:00.658Z,13.53
2022-12-19T07:20:28.883Z,11.00
2022-12-19T07:22:56.377Z,8.27
2022-12-19T07:25:23.948Z,9.53
2022-12-19T07:27:53.204Z,11.50
2022-12-19T07:30:20.820Z,11.80
2022-12-19T07:32:48.254Z,11.10
2022-12-19T07:35:16.546Z,8.43
2022-12-19T07:37:44.599Z,13.47
2022-12-19T07:40:15.450Z,12.23
2022-12-19T07:42:43.169Z,13.00
2022-12-19T07:45:13.240Z,10.07
2022-12-19T07:47:40.685Z,10.90
2022-12-19T07:50:08.399Z,11.47
2022-12-19T07:52:35.811Z,11.23
2022-12-19T07:55:03.270Z,11.27
2022-12-19T07:57:30.676Z,12.70
2022-12-19T07:59:58.508Z,12.60
2022-12-19T08:02:27.624Z,10.03
2022-12-19T08:04:55.137Z,10.57
2022-12-19T08:07:22.810Z,12.63
2022-12-19T08:09:50.257Z,11.80
2022-12-19T08:12:17.923Z,13.83
2022-12-19T08:14:45.361Z,13.40
2022-12-19T08:17:21.122Z,14.70
2022-12-19T08:19:50.334Z,15.23
2022-12-19T08:22:17.796Z,13.90
2022-12-19T08:24:45.383Z,13.27
2022-12-19T08:27:12.820Z,14.13
2022-12-19T08:29:40.296Z,13.13
2022-12-19T08:32:09.506Z,11.97
2022-12-19T08:34:37.481Z,13.70
2022-12-19T08:37:06.249Z,13.73
2022-12-19T08:39:33.941Z,15.37
2022-12-19T08:42:01.768Z,12.83
2022-12-19T08:44:29.251Z,14.03
2022-12-19T08:46:56.712Z,16.33
2022-12-19T08:49:24.157Z,14.13
2022-12-19T08:51:51.831Z,15.20
2022-12-19T08:54:20.627Z,17.63
2022-12-19T08:56:48.081Z,13.83
2022-12-19T08:59:19.327Z,16.83
2022-12-19T09:01:53.240Z,12.23
2022-12-19T09:05:46.480Z,11.23
2022-12-19T09:07:08.654Z,17.20
2022-12-19T09:09:37.485Z,14.53
2022-12-19T09:12:05.027Z,16.93
2022-12-19T09:14:33.997Z,20.67
2022-12-19T09:17:01.591Z,23.87
2022-12-19T09:19:31.355Z,25.97
2022-12-19T09:21:58.831Z,17.47
2022-12-19T09:24:26.489Z,18.23
2022-12-19T09:26:55.301Z,19.17
2022-12-19T09:29:22.752Z,41.23
2022-12-19T09:31:55.437Z,19.17
2022-12-19T09:34:24.084Z,30.50
2022-12-19T09:36:53.493Z,31.33
2022-12-19T09:39:20.952Z,17.43
2022-12-19T09:42:01.014Z,22.43
2022-12-19T09:44:36.361Z,15.73
2022-12-19T09:47:05.213Z,11.13
2022-12-19T09:49:35.776Z,16.20
2022-12-19T09:52:12.893Z,19.80
2022-12-19T09:54:42.485Z,16.83
2022-12-19T09:57:14.499Z,16.73
2022-12-19T09:59:49.667Z,19.53
2022-12-19T10:02:24.787Z,13.97
2022-12-19T10:04:58.128Z,16.60
2022-12-19T10:08:07.142Z,17.60
2022-12-19T10:12:36.097Z,18.03
2022-12-19T10:13:33.024Z,18.43
2022-12-19T10:16:03.158Z,16.00
2022-12-19T10:18:40.897Z,14.47
2022-12-19T10:21:11.400Z,17.47
2022-12-19T10:23:50.555Z,17.83
2022-12-19T10:26:20.673Z,16.63
2022-12-19T10:28:56.008Z,20.63
2022-12-19T10:31:26.113Z,17.30
2022-12-19T10:33:56.855Z,12.67
2022-12-19T10:36:48.808Z,18.33
2022-12-19T10:39:16.106Z,16.43
2022-12-19T10:41:44.672Z,16.77
2022-12-19T10:44:14.298Z,20.80
2022-12-19T10:46:42.501Z,19.90
2022-12-19T10:49:17.574Z,17.10
2022-12-19T10:51:54.293Z,18.17
2022-12-19T10:54:27.394Z,19.53
2022-12-19T10:57:18.455Z,19.67
2022-12-19T10:59:54.960Z,14.50
2022-12-19T11:02:27.630Z,20.57
2022-12-19T11:04:55.206Z,19.70
2022-12-19T11:07:22.941Z,21.00
2022-12-19T11:10:10.943Z,17.83
2022-12-19T11:17:49.603Z,23.20
2022-12-19T11:21:34.789Z,16.53
2022-12-19T11:23:27.306Z,16.57
2022-12-19T11:29:25.771Z,18.93
2022-12-19T11:30:06.172Z,18.87
2022-12-19T11:30:36.672Z,12.97
2022-12-19T11:32:41.231Z,18.10
2022-12-19T11:35:16.521Z,17.60
2022-12-19T11:37:47.776Z,17.23
2022-12-19T11:40:18.555Z,19.30
2022-12-19T11:43:10.814Z,17.97
2022-12-19T11:45:41.965Z,17.67
2022-12-19T11:48:13.887Z,16.57
2022-12-19T11:50:49.716Z,17.77
2022-12-19T11:53:20.879Z,17.83
2022-12-19T11:55:51.959Z,16.27
2022-12-19T11:58:19.405Z,14.40
2022-12-19T12:00:50.327Z,16.93
2022-12-19T12:03:31.388Z,14.30
2022-12-19T12:05:58.842Z,15.83
2022-12-19T12:10:47.466Z,17.53
2022-12-19T12:17:28.977Z,14.70
2022-12-19T12:24:10.591Z,16.93
2022-12-19T12:31:04.170Z,17.17
2022-12-19T12:31:16.284Z,15.73
2022-12-19T12:31:41.207Z,15.20
2022-12-19T12:31:44.388Z,16.20
2022-12-19T12:31:45.124Z,15.33
2022-12-19T12:35:30.673Z,14.47
2022-12-19T12:40:34.011Z,14.13
2022-12-19T12:43:05.500Z,14.90
2022-12-19T12:45:36.694Z,15.40
2022-12-19T12:48:04.260Z,12.40
2022-12-19T12:50:33.543Z,16.10
2022-12-19T12:53:07.274Z,13.00
2022-12-19T12:55:37.358Z,12.97
2022-12-19T12:58:09.097Z,12.47
2022-12-19T13:00:39.738Z,12.33
2022-12-19T13:03:11.034Z,13.40
2022-12-19T13:05:40.970Z,14.20
2022-12-19T13:08:26.886Z,14.03
2022-12-19T13:10:56.620Z,13.60
2022-12-19T13:13:49.042Z,8.27
2022-12-19T13:16:46.718Z,18.17
2022-12-19T13:19:20.980Z,14.23
2022-12-19T13:22:08.757Z,13.80
2022-12-19T13:24:39.078Z,12.77
2022-12-19T13:27:32.091Z,14.93
2022-12-19T13:30:04.198Z,15.83
2022-12-19T13:32:33.571Z,15.67
2022-12-19T13:35:47.586Z,17.03
2022-12-19T13:39:57.817Z,14.93
2022-12-19T13:40:52.789Z,16.30
2022-12-19T13:43:41.179Z,18.00
2022-12-19T13:46:24.289Z,24.23
2022-12-19T13:48:53.008Z,25.13
2022-12-19T13:51:20.699Z,27.00
2022-12-19T13:53:57.648Z,26.50
2022-12-19T13:56:26.878Z,25.63
2022-12-19T13:58:56.290Z,16.90
2022-12-19T14:01:26.332Z,16.83
2022-12-19T14:03:55.279Z,17.07
2022-12-19T14:06:24.760Z,23.73
2022-12-19T14:09:58.576Z,14.70
2022-12-19T14:13:39.845Z,15.50
2022-12-19T14:14:48.639Z,15.93
2022-12-19T14:17:30.369Z,11.93
2022-12-19T14:20:06.758Z,12.00
2022-12-19T14:22:45.262Z,13.20
2022-12-19T14:28:18.228Z,11.10
2022-12-19T14:28:26.940Z,11.57
2022-12-19T14:30:56.461Z,13.00
2022-12-19T14:33:53.427Z,8.37
2022-12-19T14:36:21.362Z,9.57
2022-12-19T14:39:27.851Z,10.17
2022-12-19T14:42:01.894Z,9.33
2022-12-19T14:53:34.045Z,11.60
2022-12-19T14:53:34.253Z,9.47
2022-12-19T14:54:03.319Z,12.63
2022-12-19T14:54:49.348Z,10.73
2022-12-19T14:58:57.317Z,13.40
2022-12-19T15:01:26.780Z,11.63
2022-12-19T15:04:50.295Z,10.73
2022-12-19T15:07:08.623Z,12.13
2022-12-19T15:11:08.834Z,13.53
2022-12-19T15:14:46.784Z,10.70
2022-12-19T15:15:38.640Z,15.60
2022-12-19T15:18:17.121Z,14.67
2022-12-19T15:20:45.974Z,16.47
2022-12-19T15:23:19.826Z,16.00
2022-12-19T15:26:06.655Z,15.57
2022-12-19T15:28:39.926Z,14.07
2022-12-19T15:31:11.567Z,15.13
2022-12-19T15:33:59.749Z,15.67
2022-12-19T15:36:27.829Z,15.27
2022-12-19T15:38:55.357Z,15.03
2022-12-19T15:41:24.019Z,16.00
2022-12-19T15:44:03.747Z,16.67
2022-12-19T15:46:32.134Z,15.87
2022-12-19T15:48:59.805Z,16.33
2022-12-19T15:51:28.797Z,16.67
2022-12-19T15:54:09.097Z,16.23
2022-12-19T15:56:46.645Z,17.83
2022-12-19T15:59:23.495Z,17.70
2022-12-19T16:01:51.741Z,14.50
2022-12-19T16:04:20.433Z,16.60
2022-12-19T16:06:49.377Z,15.40
2022-12-19T16:09:19.483Z,13.93
2022-12-19T16:11:46.968Z,18.20
2022-12-19T16:14:14.714Z,15.33
2022-12-19T16:16:42.590Z,14.93
2022-12-19T16:19:25.613Z,14.33
2022-12-19T16:21:55.258Z,14.40
2022-12-19T16:24:23.619Z,17.30
2022-12-19T16:26:53.567Z,17.73
2022-12-19T16:29:23.637Z,15.37
2022-12-19T16:31:53.090Z,17.33
2022-12-19T16:34:23.053Z,12.80
2022-12-19T16:36:50.816Z,15.83
2022-12-19T16:39:19.631Z,19.27
2022-12-19T16:41:47.730Z,18.17
2022-12-19T16:44:19.710Z,14.97
2022-12-19T16:46:50.897Z,22.27
2022-12-19T16:49:20.503Z,18.80
2022-12-19T16:51:48.608Z,18.27
2022-12-19T16:54:18.295Z,18.87
2022-12-19T16:56:52.064Z,17.80
2022-12-19T16:59:21.606Z,17.13
2022-12-19T17:01:49.736Z,15.20
2022-12-19T17:04:21.933Z,16.93
2022-12-19T17:06:50.344Z,19.27
2022-12-19T17:09:19.198Z,18.67
2022-12-19T17:11:49.287Z,17.27
2022-12-19T17:14:18.340Z,14.60
2022-12-19T17:16:45.912Z,18.37
2022-12-19T17:19:17.985Z,17.23
2022-12-19T17:21:45.795Z,15.33
2022-12-19T17:24:13.981Z,18.93
2022-12-19T17:26:41.617Z,19.07
2022-12-19T17:29:10.550Z,14.53
2022-12-19T17:31:39.642Z,16.53
2022-12-19T17:34:09.175Z,19.10
2022-12-19T17:36:38.025Z,18.53
2022-12-19T17:39:13.695Z,14.43
2022-12-19T17:41:41.142Z,20.07
2022-12-19T17:44:11.567Z,15.93
2022-12-19T17:46:39.299Z,15.40
2022-12-19T17:49:06.963Z,14.90
2022-12-19T17:51:34.420Z,17.80
2022-12-19T17:54:01.942Z,19.40
2022-12-19T17:56:30.449Z,20.33
2022-12-19T17:58:57.889Z,18.60
2022-12-19T18:01:27.247Z,16.27
2022-12-19T18:03:56.118Z,18.07
2022-12-19T18:06:23.598Z,16.20
2022-12-19T18:08:51.146Z,16.33
2022-12-19T18:11:20.010Z,18.80
2022-12-19T18:13:47.820Z,19.47
2022-12-19T18:16:17.434Z,17.23
2022-12-19T18:18:46.530Z,14.93
2022-12-19T18:21:15.735Z,14.60
2022-12-19T18:23:43.504Z,14.47
2022-12-19T18:26:11.462Z,13.77
2022-12-19T18:28:39.092Z,16.23
2022-12-19T18:31:11.697Z,12.70
2022-12-19T18:33:40.478Z,14.00
2022-12-19T18:36:16.202Z,12.67
2022-12-19T18:38:43.637Z,14.53
2022-12-19T18:41:11.632Z,13.97
2022-12-19T18:43:40.329Z,12.47
2022-12-19T18:46:07.990Z,14.77
2022-12-19T18:48:37.516Z,12.17
2022-12-19T18:51:06.102Z,14.57
2022-12-19T18:53:36.182Z,13.97
2022-12-19T18:56:04.973Z,12.83
2022-12-19T18:58:33.036Z,14.87
2022-12-19T19:01:01.259Z,12.40
2022-12-19T19:03:29.942Z,12.77
2022-12-19T19:05:57.648Z,14.47
2022-12-19T19:08:25.964Z,13.27
2022-12-19T19:11:05.265Z,12.30
2022-12-19T19:13:32.770Z,10.30
2022-12-19T19:16:01.542Z,11.23
2022-12-19T19:18:30.962Z,12.27
2022-12-19T19:21:01.251Z,11.77
2022-12-19T19:23:31.578Z,22.27
2022-12-19T19:25:59.030Z,13.93
2022-12-19T19:28:27.822Z,13.93
2022-12-19T19:30:55.559Z,25.77
2022-12-19T19:33:24.650Z,15.67
2022-12-19T19:35:54.076Z,17.17
2022-12-19T19:38:22.518Z,11.97
2022-12-19T19:40:50.042Z,13.50
2022-12-19T19:43:17.530Z,11.40
2022-12-19T19:45:46.816Z,13.77
2022-12-19T19:48:14.438Z,15.60
2022-12-19T19:50:42.075Z,11.30
2022-12-19T19:53:09.518Z,13.63
2022-12-19T19:55:36.992Z,11.63
2022-12-19T19:58:04.436Z,14.67
2022-12-19T20:00:31.914Z,15.47
2022-12-19T20:03:05.588Z,12.00
2022-12-19T20:05:34.821Z,16.23
2022-12-19T20:08:02.268Z,17.13
2022-12-19T20:10:29.739Z,16.10
2022-12-19T20:12:57.236Z,17.60
2022-12-19T20:15:24.685Z,17.50
2022-12-19T20:17:53.669Z,16.30
2022-12-19T20:20:22.875Z,18.47
2022-12-19T20:22:50.446Z,18.67
2022-12-19T20:25:18.112Z,19.83
2022-12-19T20:27:45.668Z,19.13
2022-12-19T20:30:13.669Z,18.30
2022-12-19T20:32:41.193Z,21.60
2022-12-19T20:35:14.113Z,18.87
2022-12-19T20:37:44.228Z,18.17
2022-12-19T20:40:12.849Z,15.23
2022-12-19T20:42:40.458Z,17.10
2022-12-19T20:45:08.191Z,15.77
2022-12-19T20:47:35.610Z,17.27
2022-12-19T20:50:07.479Z,19.67
2022-12-19T20:52:34.931Z,18.53
2022-12-19T20:55:03.732Z,21.03
2022-12-19T20:57:31.223Z,19.97
2022-12-19T20:59:58.802Z,16.87
2022-12-19T21:02:26.472Z,19.77
2022-12-19T21:04:54.073Z,21.60
2022-12-19T21:07:21.582Z,19.50
2022-12-19T21:09:50.903Z,16.33
2022-12-19T21:12:19.697Z,22.67
2022-12-19T21:14:47.130Z,20.00
2022-12-19T21:17:14.610Z,21.33
2022-12-19T21:19:42.095Z,20.23
2022-12-19T21:22:09.519Z,19.73
2022-12-19T21:24:37.021Z,24.17
2022-12-19T21:27:04.743Z,22.97
2022-12-19T21:29:33.523Z,21.30
2022-12-19T21:32:01.097Z,24.73
2022-12-19T21:34:28.582Z,19.80
2022-12-19T21:36:56.019Z,23.57
2022-12-19T21:39:25.365Z,24.47
2022-12-19T21:41:53.088Z,19.13
2022-12-19T21:44:20.519Z,21.57
2022-12-19T21:46:49.354Z,21.40
2022-12-19T21:49:16.911Z,21.03
2022-12-19T21:51:44.353Z,21.00
2022-12-19T21:54:11.779Z,20.03
2022-12-19T21:56:39.986Z,22.77
2022-12-19T21:59:09.136Z,24.43
2022-12-19T22:01:37.490Z,21.43
2022-12-19T22:04:07.353Z,23.77
2022-12-19T22:06:36.977Z,26.60
2022-12-19T22:09:05.598Z,21.17
2022-12-19T22:11:33.042Z,22.90
2022-12-19T22:14:01.308Z,23.23
2022-12-19T22:16:28.852Z,21.53
2022-12-19T22:18:56.517Z,23.53
2022-12-19T22:21:25.714Z,21.70
2022-12-19T22:23:53.229Z,19.77
2022-12-19T22:26:22.718Z,22.93
2022-12-19T22:28:51.237Z,22.07
2022-12-19T22:31:20.406Z,21.33
2022-12-19T22:33:48.851Z,25.07
2022-12-19T22:36:18.440Z,21.73
2022-12-19T22:38:52.288Z,23.10
2022-12-19T22:41:20.228Z,18.83
2022-12-19T22:43:47.909Z,20.90
2022-12-19T22:46:16.120Z,19.33
2022-12-19T22:48:44.511Z,20.00
2022-12-19T22:51:12.364Z,18.17
2022-12-19T22:53:40.212Z,20.40
2022-12-19T22:56:11.339Z,18.97
2022-12-19T22:58:39.497Z,22.63
2022-12-19T23:01:14.071Z,20.00
2022-12-19T23:03:41.808Z,19.80
2022-12-19T23:06:09.548Z,23.67
2022-12-19T23:08:36.999Z,20.73
2022-12-19T23:11:04.838Z,24.27
2022-12-19T23:13:33.987Z,22.17
2022-12-19T23:16:01.693Z,18.40
2022-12-19T23:18:29.299Z,22.10
2022-12-19T23:21:02.835Z,18.97
2022-12-19T23:23:30.744Z,19.63
2022-12-19T23:25:58.404Z,17.20
2022-12-19T23:28:25.908Z,21.63
2022-12-19T23:31:02.505Z,17.77
2022-12-19T23:33:30.179Z,18.80
2022-12-19T23:35:57.627Z,17.57
2022-12-19T23:38:25.375Z,18.90
2022-12-19T23:40:52.902Z,16.70
2022-12-19T23:43:20.376Z,19.90
2022-12-19T23:45:47.973Z,19.33
2022-12-19T23:48:16.767Z,19.37
2022-12-19T23:50:44.241Z,14.70
2022-12-19T23:53:11.676Z,19.00
2022-12-19T23:55:39.103Z,17.30
2022-12-19T23:58:13.650Z,16.57
